Time;durP1;ratioP1;P1;durP2;ratioP2;P2;SDS_P1;SDS_P2;PMS_P1;PMS_P2;Temp;Humidity;BMP_temperature;BMP_pressure;BME280_temperature;BME280_humidity;BME280_pressure;Samples;Min_cycle;Max_cycle;Signal;HPM_P1;HPM_P2
2021/05/23 00:03:13;;;;;;;7.40;4.62;;;;;;;8.27;80.78;98730.79;4236527;83;21106;-84
2021/05/23 00:09:15;;;;;;;9.53;4.20;;;;;;;8.17;81.21;98722.62;4223166;83;21106;-82
2021/05/23 00:15:23;;;;;;;9.13;3.75;;;;;;;8.08;80.98;98716.60;4230529;83;22450;-82
2021/05/23 00:21:32;;;;;;;16.40;6.10;;;;;;;7.94;81.43;98707.63;4232378;83;21080;-82
2021/05/23 00:27:35;;;;;;;9.83;4.37;;;;;;;7.89;81.36;98718.83;4256051;82;21094;-81
2021/05/23 00:33:37;;;;;;;8.28;3.40;;;;;;;7.79;81.36;98722.73;4246405;82;21104;-81
2021/05/23 00:39:39;;;;;;;6.97;3.77;;;;;;;7.68;81.37;98725.84;4259936;82;22426;-82
2021/05/23 00:45:43;;;;;;;7.40;3.83;;;;;;;7.61;81.54;98719.69;4248457;82;21133;-82
2021/05/23 00:51:47;;;;;;;11.90;4.47;;;;;;;7.43;81.17;98719.16;4232749;83;21676;-82
2021/05/23 00:57:49;;;;;;;8.35;3.87;;;;;;;7.20;81.58;98715.03;4222266;83;21582;-83
2021/05/23 01:03:56;;;;;;;7.85;3.30;;;;;;;7.18;81.76;98714.59;4218352;83;21066;-81
2021/05/23 01:10:11;;;;;;;;;;;;;;;7.22;82.32;98704.55;4237900;83;21113;-82
2021/05/23 01:16:21;;;;;;;9.10;3.72;;;;;;;7.26;82.61;98710.88;4214618;83;20192;-82
2021/05/23 01:22:55;;;;;;;10.95;4.28;;;;;;;7.15;82.32;98702.27;4241515;82;21113;-82
2021/05/23 01:29:07;;;;;;;15.85;3.35;;;;;;;7.11;82.10;98701.42;4267277;82;21105;-83
2021/05/23 01:35:17;;;;;;;5.62;3.75;;;;;;;6.99;82.32;98706.43;4241692;83;21090;-81
2021/05/23 01:41:18;;;;;;;5.00;3.55;;;;;;;6.92;82.22;98708.98;4233887;83;21072;-82
2021/05/23 01:47:20;;;;;;;10.32;4.58;;;;;;;6.92;82.70;98713.66;4198810;83;21127;-82
2021/05/23 01:53:23;;;;;;;9.03;5.03;;;;;;;6.81;82.48;98707.21;4193810;83;21553;-82
2021/05/23 01:59:25;;;;;;;13.15;5.58;;;;;;;6.71;82.38;98711.84;4229086;83;21062;-82
2021/05/23 02:05:26;;;;;;;7.47;3.35;;;;;;;6.74;82.75;98712.48;4099172;85;21169;-82
2021/05/23 02:11:28;;;;;;;8.23;4.75;;;;;;;6.78;83.08;98710.64;4220817;83;21110;-82
2021/05/23 02:17:31;;;;;;;8.93;5.05;;;;;;;6.81;82.87;98718.89;4210366;83;21697;-82
2021/05/23 02:23:52;;;;;;;7.60;3.62;;;;;;;6.71;82.76;98718.64;4251036;83;21090;-83
2021/05/23 02:29:53;;;;;;;10.00;5.53;;;;;;;6.62;83.16;98722.14;4250336;83;21106;-82
2021/05/23 02:35:59;;;;;;;10.63;4.70;;;;;;;6.82;83.51;98723.73;4263206;83;21637;-82
2021/05/23 02:42:00;;;;;;;9.03;4.58;;;;;;;6.77;82.78;98714.48;4259432;82;21094;-83
2021/05/23 02:48:10;;;;;;;6.33;4.50;;;;;;;6.75;83.00;98716.20;4253424;83;21678;-81
2021/05/23 02:54:17;;;;;;;9.25;4.70;;;;;;;6.73;83.17;98728.60;4253532;83;21582;-82
2021/05/23 03:00:23;;;;;;;12.25;4.40;;;;;;;6.64;82.74;98728.79;4272526;83;21121;-82
2021/05/23 03:06:24;;;;;;;11.68;4.95;;;;;;;6.66;83.49;98736.03;4257010;83;21061;-82
2021/05/23 03:12:25;;;;;;;11.15;5.50;;;;;;;6.70;83.25;98738.27;4267171;83;21106;-82
2021/05/23 03:18:27;;;;;;;10.08;6.58;;;;;;;6.93;84.03;98753.33;4253290;83;21371;-82
2021/05/23 03:24:28;;;;;;;8.05;5.03;;;;;;;7.00;83.53;98757.58;4248032;83;33853;-82
2021/05/23 03:30:38;;;;;;;7.22;4.35;;;;;;;6.94;83.49;98755.69;4236943;83;21127;-82
2021/05/23 03:36:47;;;;;;;9.73;5.17;;;;;;;6.96;83.94;98757.48;4242316;82;21715;-83
2021/05/23 03:42:50;;;;;;;10.60;5.55;;;;;;;7.20;84.28;98765.95;4235172;82;21062;-82
2021/05/23 03:48:55;;;;;;;12.95;5.35;;;;;;;7.41;84.22;98765.02;4248307;83;21126;-82
2021/05/23 03:54:56;;;;;;;8.75;5.30;;;;;;;7.49;84.51;98753.91;4255218;83;21038;-82
2021/05/23 04:01:02;;;;;;;9.55;5.05;;;;;;;7.61;84.63;98758.42;4243466;83;21735;-82
2021/05/23 04:07:15;;;;;;;5.83;4.15;;;;;;;7.68;84.77;98753.89;4250882;83;21140;-82
2021/05/23 04:13:31;;;;;;;14.25;6.80;;;;;;;7.74;84.79;98757.89;4243276;83;22343;-83
2021/05/23 04:19:39;;;;;;;9.60;4.95;;;;;;;7.84;85.01;98768.77;4263574;81;21096;-83
2021/05/23 04:25:51;;;;;;;8.58;4.70;;;;;;;8.03;85.13;98766.77;4237118;83;21064;-82
2021/05/23 04:32:18;;;;;;;7.92;4.62;;;;;;;8.22;85.29;98762.42;4256121;83;21087;-83
2021/05/23 04:38:19;;;;;;;7.47;3.80;;;;;;;8.43;85.30;98758.12;4264106;83;21686;-82
2021/05/23 04:44:23;;;;;;;8.98;3.87;;;;;;;8.67;85.40;98756.35;4233752;83;21128;-82
2021/05/23 04:50:26;;;;;;;6.83;3.50;;;;;;;8.90;85.21;98748.88;4130867;85;22397;-82
2021/05/23 04:56:41;;;;;;;9.23;4.83;;;;;;;9.17;85.33;98755.88;4171946;84;21077;-81
2021/05/23 05:03:04;;;;;;;9.70;4.08;;;;;;;9.46;85.44;98754.25;4196041;83;21618;-82
2021/05/23 05:09:05;;;;;;;6.62;3.40;;;;;;;9.65;85.30;98764.25;4198288;84;21070;-82
2021/05/23 05:15:13;;;;;;;4.28;2.80;;;;;;;9.80;85.56;98764.02;4195939;84;21022;-87
2021/05/23 05:21:14;;;;;;;5.28;2.58;;;;;;;9.95;85.19;98761.63;4187141;84;21640;-82
2021/05/23 05:27:30;;;;;;;5.35;3.50;;;;;;;10.23;85.45;98759.17;4195098;84;21038;-82
2021/05/23 05:33:36;;;;;;;5.30;2.92;;;;;;;10.49;85.06;98756.85;4193238;83;21081;-83
2021/05/23 05:39:40;;;;;;;3.98;2.85;;;;;;;10.73;84.97;98761.70;4190022;84;21121;-83
2021/05/23 05:45:57;;;;;;;4.65;2.17;;;;;;;10.87;84.72;98762.59;4209269;83;21775;-83
2021/05/23 05:51:59;;;;;;;3.67;2.37;;;;;;;11.16;84.85;98759.42;4219840;83;21692;-83
2021/05/23 05:58:01;;;;;;;8.10;2.58;;;;;;;11.39;84.85;98761.28;4230183;83;21096;-84
2021/05/23 06:04:35;;;;;;;4.60;2.33;;;;;;;11.60;84.63;98757.27;4221351;83;21101;-83
2021/05/23 06:10:37;;;;;;;6.40;2.25;;;;;;;11.89;84.22;98756.18;4241789;83;21069;-83
2021/05/23 06:16:39;;;;;;;5.33;1.90;;;;;;;12.26;83.73;98759.36;4198359;83;21075;-83
2021/05/23 06:22:59;;;;;;;4.00;1.60;;;;;;;12.58;83.34;98767.02;4191207;83;22315;-84
2021/05/23 06:29:05;;;;;;;6.70;2.17;;;;;;;12.99;82.44;98754.98;4182578;83;21076;-83
2021/05/23 06:35:37;;;;;;;1.87;1.07;;;;;;;13.34;81.85;98761.00;4219997;83;21607;-83
2021/05/23 06:41:40;;;;;;;3.20;1.50;;;;;;;13.61;80.94;98756.55;4215360;83;21104;-83
2021/05/23 06:47:41;;;;;;;2.60;1.50;;;;;;;13.90;80.74;98760.73;4144616;83;21048;-83
2021/05/23 06:53:50;;;;;;;3.90;1.32;;;;;;;14.21;80.37;98759.73;4201736;84;21673;-82
2021/05/23 06:59:58;;;;;;;3.42;2.08;;;;;;;14.73;78.62;98774.30;4146569;85;21150;-83
2021/05/23 07:06:14;;;;;;;7.03;4.22;;;;;;;15.15;73.17;98766.98;4178316;84;21096;-83
2021/05/23 07:12:36;;;;;;;2.92;1.17;;;;;;;15.49;76.84;98755.38;4214867;84;21094;-84
2021/05/23 07:26:08;;;;;;;3.67;1.77;;;;;;;16.34;72.11;98757.73;4159365;84;21113;-84
2021/05/23 07:32:09;;;;;;;1.93;0.70;;;;;;;17.08;70.87;98763.61;4226794;84;21121;-83
2021/05/23 07:38:34;;;;;;;2.87;0.70;;;;;;;17.64;70.87;98763.70;4162948;84;21425;-85
2021/05/23 07:44:48;;;;;;;2.25;0.93;;;;;;;18.00;69.17;98765.30;4183590;83;21066;-85
2021/05/23 08:04:35;;;;;;;1.57;0.80;;;;;;;17.94;60.25;98761.48;4043464;87;21102;-83
2021/05/23 08:10:58;;;;;;;2.83;0.90;;;;;;;18.16;59.31;98761.77;4199431;84;21073;-84
2021/05/23 08:17:29;;;;;;;1.67;0.78;;;;;;;18.63;60.86;98761.66;4147712;84;21639;-84
2021/05/23 08:23:32;;;;;;;1.92;1.22;;;;;;;19.08;55.70;98757.52;4212953;84;21073;-84
2021/05/23 08:29:55;;;;;;;2.77;1.27;;;;;;;19.13;56.92;98754.22;4178275;84;21637;-86
2021/05/23 08:36:18;;;;;;;1.60;0.80;;;;;;;19.12;53.39;98745.73;4174797;84;21081;-84
2021/05/23 08:43:19;;;;;;;;;;;;;;;18.95;53.32;98749.13;4140307;84;21097;-84
2021/05/23 08:49:29;;;;;;;3.02;0.78;;;;;;;18.84;48.97;98746.48;4252617;83;20243;-85
2021/05/23 08:55:58;;;;;;;2.40;0.90;;;;;;;18.81;52.18;98741.18;4055721;86;21706;-84
2021/05/23 09:02:47;;;;;;;1.17;0.50;;;;;;;19.03;48.83;98745.59;3968030;88;21254;-85
2021/05/23 09:15:45;;;;;;;3.55;0.90;;;;;;;19.66;52.17;98743.81;4117637;83;21583;-85
2021/05/23 09:21:47;;;;;;;1.00;0.57;;;;;;;19.77;52.25;98746.45;4266567;83;21083;-85
2021/05/23 09:28:08;;;;;;;2.80;1.05;;;;;;;19.71;51.49;98746.05;4268777;83;21107;-84
2021/05/23 09:48:12;;;;;;;2.10;0.60;;;;;;;20.02;51.25;98752.64;4120596;84;21105;-85
2021/05/23 10:08:23;;;;;;;1.92;0.42;;;;;;;21.47;50.61;98758.52;3837829;92;21137;-85
2021/05/23 10:14:27;;;;;;;1.87;0.50;;;;;;;21.54;47.97;98756.88;3837032;91;21551;-85
2021/05/23 10:20:30;;;;;;;1.92;0.50;;;;;;;21.61;47.33;98759.39;3745479;91;21164;-85
2021/05/23 10:26:39;;;;;;;1.12;0.50;;;;;;;21.27;46.44;98771.98;3925680;87;21198;-86
2021/05/23 10:32:43;;;;;;;0.57;0.40;;;;;;;21.46;45.61;98768.72;4051990;87;21065;-85
2021/05/23 10:45:49;;;;;;;1.65;0.68;;;;;;;21.05;45.23;98779.51;3891581;89;21733;-85
2021/05/23 10:58:45;;;;;;;4.15;0.90;;;;;;;20.07;44.39;98787.63;3878852;90;21728;-84
2021/05/23 11:04:49;;;;;;;8.18;1.05;;;;;;;19.49;46.10;98791.70;3898017;89;21123;-84
2021/05/23 11:10:54;;;;;;;7.00;0.60;;;;;;;18.46;44.90;98819.69;3924686;90;21144;-84
2021/05/23 11:17:09;;;;;;;1.80;0.42;;;;;;;17.09;46.66;98845.95;3905983;90;21190;-83
2021/05/23 11:23:20;;;;;;;2.33;0.70;;;;;;;15.99;48.14;98823.92;4122601;86;21116;-84
2021/05/23 11:29:27;;;;;;;2.77;0.45;;;;;;;15.47;49.08;98822.00;4128438;85;21152;-83
2021/05/23 11:35:50;;;;;;;1.47;0.50;;;;;;;15.42;52.12;98823.85;4136602;84;21451;-83
2021/05/23 11:42:29;;;;;;;0.70;0.50;;;;;;;15.45;52.82;98819.48;4107435;85;21065;-83
2021/05/23 11:48:42;;;;;;;1.72;0.45;;;;;;;15.64;53.46;98815.49;4110871;85;21116;-84
2021/05/23 11:54:56;;;;;;;2.75;0.90;;;;;;;15.83;54.27;98823.77;4213260;84;21025;-84
2021/05/23 12:07:39;;;;;;;2.37;0.85;;;;;;;15.40;54.66;98846.12;4182959;83;21188;-83
2021/05/23 12:13:47;;;;;;;2.50;1.05;;;;;;;15.19;55.77;98852.60;4180845;83;21056;-82
2021/05/23 12:20:09;;;;;;;1.98;0.70;;;;;;;15.03;57.24;98864.78;4261787;82;21075;-83
2021/05/23 12:26:20;;;;;;;2.80;1.30;;;;;;;14.80;58.41;98873.45;4221338;84;21092;-83
2021/05/23 12:39:08;;;;;;;2.83;0.78;;;;;;;14.33;60.82;98911.33;4233672;83;21061;-83
2021/05/23 12:45:11;;;;;;;3.95;1.10;;;;;;;13.86;61.45;98924.45;4166241;85;21065;-83
2021/05/23 12:51:27;;;;;;;4.60;0.80;;;;;;;13.34;62.96;98940.47;4214848;84;21053;-83
2021/05/23 12:57:29;;;;;;;1.45;0.70;;;;;;;13.04;63.99;98946.18;4211836;83;21080;-83
2021/05/23 13:03:31;;;;;;;3.35;1.47;;;;;;;12.96;65.14;98949.48;4216959;84;21053;-83
2021/05/23 13:09:46;;;;;;;8.20;1.98;;;;;;;13.00;67.01;98958.53;4132516;86;21097;-84
2021/05/23 13:16:04;;;;;;;6.53;2.70;;;;;;;12.78;66.83;98969.27;4207068;84;21611;-83
2021/05/23 13:22:10;;;;;;;8.08;3.60;;;;;;;12.93;67.30;98968.70;4126882;86;21685;-83
2021/05/23 13:28:12;;;;;;;6.73;2.70;;;;;;;12.85;67.72;98971.24;4205626;84;21597;-84
2021/05/23 13:34:17;;;;;;;4.15;2.12;;;;;;;12.61;68.20;98974.93;4123922;85;21066;-83
2021/05/23 13:40:19;;;;;;;4.78;1.92;;;;;;;12.65;68.38;98978.45;4204105;84;21089;-85
2021/05/23 13:46:20;;;;;;;5.28;2.12;;;;;;;12.60;68.58;98980.81;4129600;86;21131;-83
2021/05/23 13:52:25;;;;;;;1.85;1.22;;;;;;;12.46;70.61;98980.77;4225091;83;21217;-83
2021/05/23 13:58:26;;;;;;;1.92;1.30;;;;;;;12.20;72.64;98983.21;4205597;83;21097;-82
2021/05/23 14:04:32;;;;;;;2.37;1.17;;;;;;;12.14;72.64;98990.82;4205469;83;21094;-83
2021/05/23 14:10:34;;;;;;;2.83;1.50;;;;;;;12.13;73.13;98992.00;4220393;83;21953;-81
2021/05/23 14:16:38;;;;;;;2.20;1.15;;;;;;;12.12;72.60;99000.05;4214148;83;21130;-81
2021/05/23 14:22:40;;;;;;;1.80;1.20;;;;;;;12.28;72.10;99003.23;4189391;85;21161;-83
2021/05/23 14:28:47;;;;;;;4.45;1.40;;;;;;;12.39;73.03;99006.23;4210629;83;22267;-83
2021/05/23 14:34:48;;;;;;;4.17;1.65;;;;;;;12.52;73.47;99007.47;4216593;83;21078;-82
2021/05/23 14:40:50;;;;;;;4.25;2.17;;;;;;;12.49;73.29;99019.23;4222480;83;21109;-82
2021/05/23 14:46:51;;;;;;;3.90;2.45;;;;;;;12.55;73.20;99016.88;4210032;83;21077;-84
2021/05/23 14:52:53;;;;;;;4.05;2.72;;;;;;;12.63;73.89;99022.02;4243330;83;22320;-83
2021/05/23 14:58:55;;;;;;;8.18;2.52;;;;;;;12.63;74.18;99026.72;4230448;83;21097;-82
2021/05/23 15:04:56;;;;;;;6.12;2.50;;;;;;;12.68;74.36;99032.42;4247911;83;21054;-83
2021/05/23 15:10:58;;;;;;;5.20;2.72;;;;;;;12.63;74.23;99033.58;4224547;83;21064;-82
2021/05/23 15:16:59;;;;;;;5.17;3.00;;;;;;;12.49;74.46;99039.02;4239875;83;21723;-82
2021/05/23 15:23:05;;;;;;;4.97;2.45;;;;;;;12.33;75.03;99046.79;4241782;83;21605;-82
2021/05/23 15:35:29;;;;;;;3.62;1.72;;;;;;;12.13;75.68;99060.60;4226718;83;21586;-83
2021/05/23 15:41:30;;;;;;;3.65;1.87;;;;;;;11.97;76.10;99065.02;4240571;82;21167;-82
2021/05/23 15:47:32;;;;;;;4.25;2.22;;;;;;;11.82;76.93;99059.24;4238966;82;21096;-82
2021/05/23 15:53:34;;;;;;;3.22;1.80;;;;;;;11.74;76.98;99060.36;4259416;83;21077;-82
2021/05/23 15:59:35;;;;;;;4.65;2.40;;;;;;;11.65;78.00;99055.76;4263424;83;21623;-84
2021/05/23 16:05:37;;;;;;;3.92;2.15;;;;;;;11.59;78.85;99056.48;4259692;83;21151;-83
2021/05/23 16:11:39;;;;;;;6.72;3.30;;;;;;;11.54;79.37;99052.11;4257311;83;21086;-82
2021/05/23 16:17:41;;;;;;;5.58;3.50;;;;;;;11.48;79.14;99054.23;4251907;83;21671;-82
2021/05/23 16:23:44;;;;;;;8.35;4.08;;;;;;;11.47;79.47;99056.19;4153663;85;21627;-81
2021/05/23 16:29:46;;;;;;;9.35;5.10;;;;;;;11.49;79.28;99057.17;4247146;83;21084;-83
2021/05/23 16:35:52;;;;;;;6.72;4.10;;;;;;;11.50;79.40;99063.65;4255005;83;21058;-82
2021/05/23 16:41:53;;;;;;;6.77;4.03;;;;;;;11.50;81.22;99055.42;4252230;83;21370;-83
2021/05/23 16:47:59;;;;;;;6.67;3.83;;;;;;;11.43;80.98;99062.23;4218771;82;21149;-82
2021/05/23 16:54:02;;;;;;;6.37;3.70;;;;;;;11.39;80.69;99074.30;4237804;83;22266;-82
2021/05/23 17:00:08;;;;;;;8.25;3.45;;;;;;;11.37;81.52;99082.91;4253547;83;21094;-83
2021/05/23 17:06:12;;;;;;;6.72;3.15;;;;;;;11.36;80.67;99067.63;4248377;83;21120;-83
2021/05/23 17:12:15;;;;;;;6.28;3.92;;;;;;;11.28;80.91;99061.88;4241493;83;21433;-82
2021/05/23 17:18:24;;;;;;;6.70;3.30;;;;;;;11.31;81.00;99080.30;4251516;83;21043;-83
2021/05/23 17:24:26;;;;;;;5.70;3.10;;;;;;;11.29;81.35;99090.84;4252901;83;22267;-83
2021/05/23 17:30:37;;;;;;;7.00;2.80;;;;;;;11.24;81.24;99097.27;4243744;83;21056;-83
2021/05/23 17:36:38;;;;;;;7.45;3.70;;;;;;;11.19;81.65;99099.77;4233417;83;21070;-82
2021/05/23 17:42:41;;;;;;;4.67;3.05;;;;;;;11.10;82.09;99108.28;4248713;83;21060;-82
2021/05/23 17:48:45;;;;;;;6.05;3.20;;;;;;;11.10;81.92;99119.84;4204771;83;21094;-83
2021/05/23 17:54:53;;;;;;;7.37;3.72;;;;;;;11.03;82.07;99115.06;4223769;83;21034;-82
2021/05/23 18:00:58;;;;;;;7.65;4.03;;;;;;;11.13;82.11;99129.44;4237801;83;21100;-83
2021/05/23 18:07:00;;;;;;;9.23;4.75;;;;;;;11.10;82.27;99134.91;4236825;83;22112;-82
2021/05/23 18:13:04;;;;;;;9.58;5.10;;;;;;;11.05;82.41;99133.30;4195729;83;21652;-82
2021/05/23 18:19:06;;;;;;;11.25;4.97;;;;;;;11.00;82.49;99130.88;4268696;83;21052;-82
2021/05/23 18:25:08;;;;;;;8.00;4.87;;;;;;;10.95;82.74;99138.06;4224166;83;21657;-82
2021/05/23 18:31:10;;;;;;;8.63;5.25;;;;;;;10.91;82.87;99146.03;4230763;83;21073;-82
2021/05/23 18:37:11;;;;;;;9.85;5.12;;;;;;;10.96;82.82;99151.18;4164976;85;21087;-82
2021/05/23 18:43:15;;;;;;;9.40;5.20;;;;;;;10.90;82.79;99164.97;4230533;83;21141;-82
2021/05/23 18:49:19;;;;;;;12.30;5.08;;;;;;;10.83;83.06;99165.70;4233230;81;21100;-82
2021/05/23 18:55:22;;;;;;;7.65;4.90;;;;;;;10.82;83.22;99186.61;4247901;83;21021;-82
2021/05/23 19:01:33;;;;;;;10.30;5.45;;;;;;;10.85;83.02;99190.73;4261774;83;21069;-82
2021/05/23 19:07:39;;;;;;;11.50;5.95;;;;;;;10.75;83.09;99203.73;4249669;82;21096;-82
2021/05/23 19:20:34;;;;;;;10.78;6.60;;;;;;;10.85;83.42;99235.16;4690316;74;26496;-83
2021/05/23 19:26:49;;;;;;;13.48;6.83;;;;;;;10.90;83.39;99253.41;4609924;75;21047;-82
2021/05/23 19:33:02;;;;;;;10.60;7.05;;;;;;;10.96;83.39;99255.27;4610922;75;21308;-83
2021/05/23 19:39:04;;;;;;;13.83;8.53;;;;;;;10.92;83.36;99257.95;4613262;75;20993;-83
2021/05/23 19:45:09;;;;;;;14.65;9.33;;;;;;;10.73;83.25;99265.48;4589054;76;21075;-83
2021/05/23 19:51:16;;;;;;;14.85;9.13;;;;;;;10.72;83.51;99272.92;4620922;75;21052;-82
2021/05/23 19:57:32;;;;;;;15.75;9.88;;;;;;;10.49;83.79;99283.10;4603216;75;22292;-82
2021/05/23 20:03:50;;;;;;;13.08;8.93;;;;;;;10.27;84.25;99290.78;4608654;75;21056;-82
2021/05/23 20:09:59;;;;;;;16.45;8.33;;;;;;;10.20;84.80;99293.38;4591357;75;21075;-83
2021/05/23 20:16:02;;;;;;;14.03;8.10;;;;;;;10.11;84.94;99296.14;4583906;75;21554;-82
2021/05/23 20:22:39;;;;;;;14.47;7.47;;;;;;;10.04;85.14;99298.74;4606352;75;21600;-83
2021/05/23 20:28:50;;;;;;;13.28;7.92;;;;;;;9.97;85.90;99306.80;4633046;75;21038;-83
2021/05/23 20:35:00;;;;;;;13.62;7.50;;;;;;;9.85;85.98;99304.24;4629467;75;21068;-83
2021/05/23 20:53:54;;;;;;;13.80;7.33;;;;;;;9.77;86.33;99316.99;4587311;76;21058;-82
2021/05/23 21:00:36;;;;;;;14.05;8.10;;;;;;;9.68;86.28;99331.44;4641480;75;21090;-82
2021/05/23 21:06:37;;;;;;;21.25;9.10;;;;;;;9.69;86.53;99339.08;4610679;76;21072;-82
2021/05/23 21:12:38;;;;;;;11.83;7.40;;;;;;;9.58;86.48;99340.23;4596469;75;21084;-83
2021/05/23 21:19:19;;;;;;;13.62;7.85;;;;;;;9.55;86.45;99354.02;4635745;75;21636;-83
2021/05/23 21:25:43;;;;;;;20.12;8.30;;;;;;;9.46;86.51;99356.19;4558600;75;21177;-83
2021/05/23 21:31:51;;;;;;;14.63;8.65;;;;;;;9.53;86.61;99368.64;4593878;75;21065;-83
2021/05/23 21:37:59;;;;;;;20.40;11.22;;;;;;;9.45;86.45;99368.84;4606784;75;21596;-82
2021/05/23 21:44:12;;;;;;;17.30;10.03;;;;;;;9.28;86.63;99373.34;4607722;75;21420;-83
2021/05/23 21:50:23;;;;;;;17.25;9.23;;;;;;;9.17;87.00;99369.02;4600578;75;21097;-83
2021/05/23 21:56:33;;;;;;;15.75;8.08;;;;;;;9.27;87.07;99370.41;4611963;75;21623;-83
2021/05/23 22:09:15;;;;;;;15.38;9.55;;;;;;;9.46;86.66;99399.10;4583598;75;21665;-83
2021/05/23 22:15:29;;;;;;;16.42;9.45;;;;;;;9.35;86.31;99410.38;4584008;76;21018;-83
2021/05/23 22:21:31;;;;;;;14.70;8.38;;;;;;;9.08;86.45;99417.56;4589568;75;21087;-83
2021/05/23 22:27:41;;;;;;;15.15;9.25;;;;;;;9.10;86.54;99424.84;4598103;75;21526;-83
2021/05/23 22:34:29;;;;;;;16.40;8.18;;;;;;;9.12;86.58;99423.11;4602976;76;21119;-84
2021/05/23 22:41:12;;;;;;;17.23;7.47;;;;;;;9.11;86.41;99431.88;4350043;80;21696;-83
2021/05/23 22:47:58;;;;;;;17.85;9.40;;;;;;;9.10;86.40;99439.05;4374981;79;21052;-84
2021/05/23 22:54:00;;;;;;;14.83;9.63;;;;;;;8.98;86.12;99441.33;4336987;80;21581;-84
2021/05/23 23:06:30;;;;;;;16.95;9.15;;;;;;;8.41;86.82;99436.92;4402466;79;21557;-83
2021/05/23 23:12:39;;;;;;;13.80;8.28;;;;;;;8.22;86.96;99440.89;4409117;79;21568;-83
2021/05/23 23:18:49;;;;;;;15.05;7.05;;;;;;;8.16;87.22;99446.94;4397698;79;21413;-83
2021/05/23 23:24:56;;;;;;;15.25;8.83;;;;;;;8.12;87.79;99456.38;4401762;79;21065;-83
2021/05/23 23:30:57;;;;;;;14.10;7.85;;;;;;;8.13;87.52;99464.77;4403206;79;21069;-84
2021/05/23 23:37:28;;;;;;;16.17;7.55;;;;;;;8.05;87.79;99475.84;4401329;79;21085;-83
2021/05/23 23:43:36;;;;;;;11.15;7.05;;;;;;;8.26;88.06;99499.07;4335897;80;21078;-84
2021/05/23 23:49:37;;;;;;;15.65;9.03;;;;;;;8.44;88.05;99493.52;4335337;80;21081;-83
2021/05/23 23:55:39;;;;;;;19.02;9.68;;;;;;;8.53;87.51;99508.38;4370016;78;21037;-83
